createdAt,value
2022-12-20T00:01:33.216Z,69.49
2022-12-20T00:04:02.714Z,69.22
2022-12-20T00:06:29.859Z,69.35
2022-12-20T00:09:00.410Z,69.24
2022-12-20T00:11:28.843Z,69.08
2022-12-20T00:13:56.419Z,69.74
2022-12-20T00:16:25.442Z,69.19
2022-12-20T00:18:57.758Z,69.50
2022-12-20T00:21:25.357Z,69.31
2022-12-20T00:23:53.100Z,69.56
2022-12-20T00:26:23.567Z,69.81
2022-12-20T00:28:53.106Z,69.97
2022-12-20T00:31:21.319Z,69.70
2022-12-20T00:33:50.806Z,69.69
2022-12-20T00:36:19.330Z,69.25
2022-12-20T00:38:48.168Z,70.13
2022-12-20T00:41:19.274Z,69.62
2022-12-20T00:43:47.324Z,69.99
2022-12-20T00:46:15.409Z,69.44
2022-12-20T00:48:42.459Z,69.41
2022-12-20T00:51:13.355Z,69.72
2022-12-20T00:53:41.150Z,69.56
2022-12-20T00:56:08.594Z,69.82
2022-12-20T00:58:38.187Z,69.52
2022-12-20T01:01:07.304Z,69.80
2022-12-20T01:03:34.653Z,69.48
2022-12-20T01:06:03.455Z,69.61
2022-12-20T01:08:31.326Z,69.48
2022-12-20T01:11:13.127Z,69.05
2022-12-20T01:13:44.288Z,69.19
2022-12-20T01:16:19.670Z,69.27
2022-12-20T01:18:47.947Z,69.51
2022-12-20T01:21:16.782Z,69.90
2022-12-20T01:23:44.298Z,69.75
2022-12-20T01:26:14.245Z,69.88
2022-12-20T01:28:43.580Z,70.10
2022-12-20T01:31:13.393Z,69.90
2022-12-20T01:33:40.819Z,69.66
2022-12-20T01:36:12.108Z,69.38
2022-12-20T01:38:39.247Z,69.42
2022-12-20T01:41:06.395Z,69.37
2022-12-20T01:43:51.184Z,69.32
2022-12-20T01:46:20.670Z,69.52
2022-12-20T01:48:57.314Z,69.88
2022-12-20T01:51:25.056Z,69.61
2022-12-20T01:54:02.603Z,69.45
2022-12-20T01:56:29.772Z,69.37
2022-12-20T01:58:58.327Z,69.72
2022-12-20T02:01:26.040Z,69.38
2022-12-20T02:03:55.729Z,69.47
2022-12-20T02:06:26.052Z,69.59
2022-12-20T02:08:57.688Z,68.82
2022-12-20T02:11:33.947Z,69.32
2022-12-20T02:14:42.433Z,69.53
2022-12-20T02:17:18.329Z,69.31
2022-12-20T02:19:54.165Z,69.47
2022-12-20T02:22:49.065Z,69.24
2022-12-20T02:25:32.877Z,69.36
2022-12-20T02:28:22.762Z,69.40
2022-12-20T02:30:53.726Z,69.39
2022-12-20T02:33:24.268Z,69.07
2022-12-20T02:35:51.375Z,69.25
2022-12-20T02:38:45.111Z,69.22
2022-12-20T02:41:12.005Z,69.32
2022-12-20T02:44:02.458Z,69.69
2022-12-20T02:46:31.486Z,69.32
2022-12-20T02:49:02.413Z,69.13
2022-12-20T02:51:32.747Z,69.40
2022-12-20T02:54:00.595Z,69.35
2022-12-20T02:56:36.360Z,68.83
2022-12-20T02:59:09.555Z,68.92
2022-12-20T03:01:41.869Z,69.39
2022-12-20T03:04:09.274Z,69.09
2022-12-20T03:06:40.572Z,69.52
2022-12-20T03:09:07.615Z,69.03
2022-12-20T03:11:36.382Z,69.20
2022-12-20T03:14:03.439Z,68.97
2022-12-20T03:16:30.518Z,69.08
2022-12-20T03:18:57.542Z,69.01
2022-12-20T03:21:24.408Z,69.00
2022-12-20T03:23:51.471Z,68.86
2022-12-20T03:26:18.663Z,69.31
2022-12-20T03:28:51.395Z,69.22
2022-12-20T03:31:21.654Z,68.98
2022-12-20T03:33:52.194Z,69.01
2022-12-20T03:36:23.721Z,69.00
2022-12-20T03:38:56.264Z,68.76
2022-12-20T03:41:25.924Z,68.78
2022-12-20T03:43:53.389Z,68.89
2022-12-20T03:46:22.309Z,68.65
2022-12-20T03:48:49.904Z,68.62
2022-12-20T03:51:17.133Z,68.93
2022-12-20T03:53:45.287Z,69.13
2022-12-20T03:56:14.348Z,68.72
2022-12-20T03:58:42.885Z,69.07
2022-12-20T04:01:25.505Z,69.73
2022-12-20T04:03:54.930Z,70.11
2022-12-20T04:06:23.509Z,69.61
2022-12-20T04:08:51.660Z,70.12
2022-12-20T04:11:26.197Z,71.19
2022-12-20T04:14:04.401Z,71.08
2022-12-20T04:16:32.339Z,71.24
2022-12-20T04:19:01.565Z,71.08
2022-12-20T04:21:34.932Z,70.21
2022-12-20T04:24:05.268Z,70.53
2022-12-20T04:26:55.546Z,69.94
2022-12-20T04:29:23.178Z,69.60
2022-12-20T04:31:50.938Z,69.21
2022-12-20T04:34:19.531Z,69.19
2022-12-20T04:36:46.867Z,68.93
2022-12-20T04:39:20.746Z,68.95
2022-12-20T04:42:17.293Z,69.31
2022-12-20T04:44:44.546Z,69.10
2022-12-20T04:47:13.649Z,69.32
2022-12-20T04:49:40.665Z,68.53
2022-12-20T04:52:27.120Z,68.97
2022-12-20T04:54:54.315Z,69.16
2022-12-20T04:57:26.708Z,69.72
2022-12-20T04:59:53.907Z,69.86
2022-12-20T05:02:21.021Z,69.56
2022-12-20T05:04:54.602Z,69.71
2022-12-20T05:07:21.888Z,69.38
2022-12-20T05:09:52.651Z,69.20
2022-12-20T05:12:19.692Z,68.94
2022-12-20T05:14:46.855Z,69.36
2022-12-20T05:17:17.071Z,69.52
2022-12-20T05:19:44.236Z,68.94
2022-12-20T05:22:31.833Z,68.98
2022-12-20T05:25:26.151Z,69.10
2022-12-20T05:27:55.749Z,69.30
2022-12-20T05:30:26.336Z,69.25
2022-12-20T05:32:53.954Z,69.35
2022-12-20T05:35:21.718Z,69.09
2022-12-20T05:37:53.574Z,68.90
2022-12-20T05:40:22.594Z,69.77
2022-12-20T05:42:49.996Z,69.12
2022-12-20T05:45:17.298Z,69.49
2022-12-20T05:47:50.678Z,69.85
2022-12-20T05:50:19.176Z,69.21
2022-12-20T05:53:11.003Z,69.28
2022-12-20T05:55:45.465Z,69.52
2022-12-20T05:58:16.144Z,70.00
2022-12-20T06:00:52.653Z,69.95
2022-12-20T06:03:20.415Z,69.80
2022-12-20T06:05:47.766Z,69.67
2022-12-20T06:08:23.908Z,69.95
2022-12-20T06:10:52.631Z,69.64
2022-12-20T06:13:21.177Z,69.84
2022-12-20T06:15:50.579Z,69.77
2022-12-20T06:18:19.204Z,69.43
2022-12-20T06:20:51.904Z,69.54
2022-12-20T06:23:22.269Z,69.27
2022-12-20T06:25:58.943Z,69.38
2022-12-20T06:28:30.408Z,69.30
2022-12-20T06:30:58.897Z,69.48
2022-12-20T06:33:38.175Z,69.85
2022-12-20T06:36:05.598Z,70.14
2022-12-20T06:38:32.579Z,70.13
2022-12-20T06:40:59.988Z,70.34
2022-12-20T06:43:26.994Z,69.91
2022-12-20T06:45:55.251Z,69.89
2022-12-20T06:48:22.238Z,69.93
2022-12-20T06:50:55.624Z,69.87
2022-12-20T06:53:24.376Z,69.76
2022-12-20T06:55:51.563Z,70.16
2022-12-20T06:58:19.618Z,70.14
2022-12-20T07:00:49.563Z,69.86
2022-12-20T07:03:16.967Z,70.15
2022-12-20T07:05:43.969Z,70.01
2022-12-20T07:08:10.999Z,70.06
2022-12-20T07:10:38.425Z,70.18
2022-12-20T07:13:05.419Z,69.48
2022-12-20T07:15:32.727Z,69.67
2022-12-20T07:17:59.867Z,69.51
2022-12-20T07:20:26.983Z,69.31
2022-12-20T07:22:53.963Z,69.12
2022-12-20T07:25:21.245Z,69.06
2022-12-20T07:27:52.813Z,69.33
2022-12-20T07:30:20.968Z,69.15
2022-12-20T07:32:47.857Z,69.43
2022-12-20T07:35:15.131Z,69.00
2022-12-20T07:37:42.188Z,69.63
2022-12-20T07:40:11.218Z,69.29
2022-12-20T07:42:41.599Z,69.02
2022-12-20T07:45:13.474Z,69.25
2022-12-20T07:47:40.415Z,69.37
2022-12-20T07:50:08.245Z,69.34
2022-12-20T07:52:36.237Z,69.15
2022-12-20T07:55:05.575Z,69.27
2022-12-20T07:57:42.521Z,69.32
2022-12-20T08:00:11.243Z,69.56
2022-12-20T08:02:48.406Z,69.70
2022-12-20T08:05:16.251Z,69.55
2022-12-20T08:07:44.776Z,69.38
2022-12-20T08:10:14.350Z,69.51
2022-12-20T08:12:42.893Z,69.51
2022-12-20T08:15:10.355Z,69.50
2022-12-20T08:17:37.396Z,69.07
2022-12-20T08:20:05.984Z,69.04
2022-12-20T08:22:33.484Z,69.04
2022-12-20T08:25:00.757Z,68.87
2022-12-20T08:27:27.775Z,68.93
2022-12-20T08:29:54.860Z,68.86
2022-12-20T08:32:21.847Z,69.07
2022-12-20T08:34:48.776Z,69.46
2022-12-20T08:37:19.295Z,69.27
2022-12-20T08:39:46.261Z,69.06
2022-12-20T08:42:14.803Z,69.13
2022-12-20T08:44:41.753Z,69.57
2022-12-20T08:47:08.744Z,69.30
2022-12-20T08:49:35.755Z,69.03
2022-12-20T08:52:02.722Z,68.87
2022-12-20T08:54:29.729Z,68.85
2022-12-20T08:56:56.694Z,68.88
2022-12-20T08:59:23.626Z,69.23
2022-12-20T09:01:50.861Z,69.05
2022-12-20T09:04:17.915Z,68.80
2022-12-20T09:06:44.854Z,68.90
2022-12-20T09:09:11.798Z,68.48
2022-12-20T09:11:38.759Z,68.74
2022-12-20T09:14:05.805Z,68.47
2022-12-20T09:16:33.474Z,68.69
2022-12-20T09:19:05.492Z,68.63
2022-12-20T09:21:33.998Z,68.69
2022-12-20T09:24:01.001Z,68.63
2022-12-20T09:26:27.949Z,68.66
2022-12-20T09:28:54.967Z,68.75
2022-12-20T09:31:24.210Z,68.30
2022-12-20T09:33:54.994Z,68.67
2022-12-20T09:36:23.544Z,68.33
2022-12-20T09:38:51.632Z,68.07
2022-12-20T09:41:38.951Z,67.97
2022-12-20T09:44:36.794Z,67.71
2022-12-20T09:47:15.573Z,68.47
2022-12-20T09:49:45.960Z,68.61
2022-12-20T09:52:15.775Z,68.69
2022-12-20T09:54:48.705Z,68.51
2022-12-20T09:57:36.906Z,67.89
2022-12-20T10:00:19.111Z,67.77
2022-12-20T10:03:09.422Z,67.86
2022-12-20T10:05:42.946Z,67.67
2022-12-20T10:08:25.473Z,67.96
2022-12-20T10:11:10.374Z,68.08
2022-12-20T10:13:56.186Z,68.06
2022-12-20T10:16:46.152Z,67.83
2022-12-20T10:19:26.478Z,67.82
2022-12-20T10:22:08.068Z,67.82
2022-12-20T10:24:36.215Z,67.92
2022-12-20T10:27:21.767Z,67.63
2022-12-20T10:29:50.726Z,67.79
2022-12-20T10:32:21.679Z,67.47
2022-12-20T10:35:11.665Z,67.52
2022-12-20T10:37:41.351Z,67.50
2022-12-20T10:40:53.748Z,68.09
2022-12-20T10:43:22.631Z,68.05
2022-12-20T10:46:02.175Z,68.43
2022-12-20T10:48:35.430Z,67.96
2022-12-20T10:51:03.925Z,67.59
2022-12-20T10:53:32.654Z,67.71
2022-12-20T10:56:19.421Z,67.44
2022-12-20T10:59:15.713Z,67.65
2022-12-20T11:01:46.457Z,67.71
2022-12-20T11:04:30.424Z,67.19
2022-12-20T11:06:57.933Z,66.81
2022-12-20T11:09:27.159Z,66.99
2022-12-20T11:12:07.861Z,67.17
2022-12-20T11:14:39.749Z,66.85
2022-12-20T11:17:31.354Z,66.94
2022-12-20T11:20:47.944Z,66.87
2022-12-20T11:23:29.823Z,66.79
2022-12-20T11:26:24.415Z,66.96
2022-12-20T11:29:07.803Z,66.49
2022-12-20T11:31:42.746Z,66.51
2022-12-20T11:34:40.421Z,66.59
2022-12-20T11:37:23.184Z,66.31
2022-12-20T11:40:29.664Z,66.36
2022-12-20T11:43:14.613Z,65.70
2022-12-20T11:45:53.536Z,65.79
2022-12-20T11:48:34.555Z,66.14
2022-12-20T11:51:25.896Z,66.17
2022-12-20T11:53:59.485Z,66.20
2022-12-20T11:56:35.434Z,66.51
2022-12-20T11:59:15.113Z,66.54
2022-12-20T12:13:27.618Z,67.98
2022-12-20T12:15:58.606Z,68.77
2022-12-20T12:18:29.655Z,68.58
2022-12-20T12:21:09.311Z,69.33
2022-12-20T12:23:36.853Z,69.51
2022-12-20T12:26:20.392Z,68.96
2022-12-20T12:28:55.344Z,68.59
2022-12-20T12:31:54.139Z,68.34
2022-12-20T12:34:43.266Z,68.19
2022-12-20T12:37:32.643Z,68.16
2022-12-20T12:40:36.994Z,67.77
2022-12-20T12:43:40.651Z,67.96
2022-12-20T12:46:33.052Z,67.14
2022-12-20T12:49:16.550Z,66.60
2022-12-20T12:51:52.319Z,66.46
2022-12-20T12:54:23.535Z,66.45
2022-12-20T12:56:51.942Z,66.75
2022-12-20T12:59:34.202Z,66.72
2022-12-20T13:02:07.072Z,67.14
2022-12-20T13:04:53.065Z,66.75
2022-12-20T13:07:32.836Z,66.68
2022-12-20T13:10:01.505Z,67.06
2022-12-20T13:12:37.298Z,66.87
2022-12-20T13:15:19.415Z,66.79
2022-12-20T13:17:49.234Z,66.36
2022-12-20T13:20:18.794Z,67.16
2022-12-20T13:23:14.353Z,67.12
2022-12-20T13:25:49.760Z,67.21
2022-12-20T13:28:19.821Z,67.48
2022-12-20T13:30:49.023Z,67.94
2022-12-20T13:33:24.580Z,67.56
2022-12-20T13:35:59.506Z,67.24
2022-12-20T13:38:43.603Z,67.43
2022-12-20T13:41:22.034Z,67.29
2022-12-20T13:43:51.253Z,67.72
2022-12-20T13:46:39.136Z,67.22
2022-12-20T13:49:09.299Z,67.06
2022-12-20T13:51:36.357Z,67.79
2022-12-20T13:54:13.215Z,67.28
2022-12-20T13:56:51.193Z,67.41
2022-12-20T13:59:26.470Z,67.36
2022-12-20T14:01:59.449Z,67.64
2022-12-20T14:04:38.950Z,67.64
2022-12-20T14:07:06.232Z,67.48
2022-12-20T14:09:38.210Z,67.24
2022-12-20T14:12:28.526Z,67.35
2022-12-20T14:14:57.636Z,67.19
2022-12-20T14:17:32.636Z,67.06
2022-12-20T14:20:24.637Z,67.45
2022-12-20T14:23:05.572Z,67.44
2022-12-20T14:25:33.316Z,67.33
2022-12-20T14:28:00.522Z,67.37
2022-12-20T14:30:42.329Z,67.38
2022-12-20T14:33:42.332Z,68.08
2022-12-20T14:36:19.313Z,68.07
2022-12-20T14:38:52.053Z,67.82
2022-12-20T14:41:39.023Z,68.45
2022-12-20T14:44:21.954Z,68.39
2022-12-20T14:47:01.390Z,68.39
2022-12-20T14:49:34.524Z,68.35
2022-12-20T14:52:14.788Z,68.57
2022-12-20T14:57:36.646Z,68.53
2022-12-20T15:00:09.534Z,68.20
2022-12-20T15:02:57.235Z,68.33
2022-12-20T15:05:33.649Z,68.60
2022-12-20T15:08:15.558Z,68.77
2022-12-20T15:10:54.094Z,68.74
2022-12-20T15:13:25.634Z,68.25
2022-12-20T15:15:52.718Z,68.20
2022-12-20T15:18:21.771Z,68.36
2022-12-20T15:21:09.684Z,68.25
2022-12-20T15:23:36.718Z,68.50
2022-12-20T15:26:03.710Z,68.54
2022-12-20T15:28:30.800Z,68.67
2022-12-20T15:30:58.083Z,68.70
2022-12-20T15:33:32.414Z,68.54
2022-12-20T15:35:59.348Z,68.82
2022-12-20T15:38:54.956Z,69.29
2022-12-20T15:41:34.440Z,69.46
2022-12-20T15:44:06.292Z,69.40
2022-12-20T15:46:33.595Z,69.07
2022-12-20T15:49:00.644Z,69.12
2022-12-20T15:51:33.154Z,68.75
2022-12-20T15:54:02.334Z,68.87
2022-12-20T15:56:29.816Z,68.88
2022-12-20T15:58:56.995Z,68.72
2022-12-20T16:01:39.775Z,68.71
2022-12-20T16:04:08.484Z,68.88
2022-12-20T16:06:35.512Z,68.81
2022-12-20T16:09:02.425Z,69.04
2022-12-20T16:11:31.310Z,68.59
2022-12-20T16:14:00.572Z,68.49
2022-12-20T16:16:33.709Z,68.53
2022-12-20T16:19:02.222Z,68.41
2022-12-20T16:21:33.244Z,68.59
2022-12-20T16:24:00.352Z,69.81
2022-12-20T16:26:27.978Z,69.18
2022-12-20T16:28:56.082Z,69.17
2022-12-20T16:31:45.022Z,69.33
2022-12-20T16:34:17.509Z,68.91
2022-12-20T16:36:45.009Z,68.93
2022-12-20T16:39:12.676Z,69.48
2022-12-20T16:41:42.694Z,69.54
2022-12-20T16:44:15.222Z,69.43
2022-12-20T16:46:42.944Z,69.20
2022-12-20T16:49:19.407Z,69.11
2022-12-20T16:51:49.123Z,69.33
2022-12-20T16:54:22.075Z,68.72
2022-12-20T16:56:56.293Z,69.25
2022-12-20T16:59:26.618Z,69.10
2022-12-20T17:01:57.041Z,69.28
2022-12-20T17:04:25.183Z,69.41
2022-12-20T17:06:52.100Z,69.34
2022-12-20T17:12:01.255Z,69.12
2022-12-20T17:14:28.179Z,69.00
2022-12-20T17:16:55.161Z,69.29
2022-12-20T17:19:22.773Z,70.13
2022-12-20T17:24:30.815Z,69.26
2022-12-20T17:26:58.296Z,69.15
2022-12-20T17:29:25.255Z,68.80
2022-12-20T17:31:52.302Z,69.31
2022-12-20T17:34:23.243Z,69.37
2022-12-20T17:36:52.094Z,69.31
2022-12-20T17:39:19.105Z,69.69
2022-12-20T17:41:47.385Z,69.74
2022-12-20T17:44:24.854Z,69.65
2022-12-20T17:46:53.514Z,69.41
2022-12-20T17:49:21.361Z,69.64
2022-12-20T17:51:48.574Z,69.72
2022-12-20T17:54:22.140Z,69.92
2022-12-20T17:56:53.768Z,69.61
2022-12-20T17:59:21.939Z,69.63
2022-12-20T18:01:49.308Z,69.57
2022-12-20T18:04:17.185Z,69.54
2022-12-20T18:06:45.719Z,69.47
2022-12-20T18:09:22.240Z,69.28
2022-12-20T18:11:49.695Z,69.54
2022-12-20T18:14:17.339Z,69.96
2022-12-20T18:16:44.622Z,69.84
2022-12-20T18:19:17.615Z,69.92
2022-12-20T18:21:45.264Z,70.11
2022-12-20T18:24:14.374Z,69.65
2022-12-20T18:26:41.302Z,68.99
2022-12-20T18:29:10.988Z,69.44
2022-12-20T18:31:39.500Z,69.46
2022-12-20T18:34:07.142Z,69.46
2022-12-20T18:36:37.279Z,69.63
2022-12-20T18:39:07.637Z,69.68
2022-12-20T18:41:35.456Z,69.58
2022-12-20T18:44:05.603Z,69.86
2022-12-20T18:46:33.886Z,69.59
2022-12-20T18:49:02.067Z,69.29
2022-12-20T18:51:31.686Z,69.20
2022-12-20T18:53:59.958Z,69.53
2022-12-20T18:56:31.060Z,69.65
2022-12-20T18:59:04.625Z,70.06
2022-12-20T19:01:35.975Z,69.79
2022-12-20T19:04:05.669Z,69.75
2022-12-20T19:06:33.692Z,69.43
2022-12-20T19:09:02.062Z,69.35
2022-12-20T19:11:29.470Z,68.83
2022-12-20T19:13:56.705Z,69.18
2022-12-20T19:16:26.009Z,69.20
2022-12-20T19:18:53.034Z,68.74
2022-12-20T19:21:24.169Z,69.14
2022-12-20T19:23:53.729Z,69.06
2022-12-20T19:26:22.528Z,68.62
2022-12-20T19:28:49.608Z,68.82
2022-12-20T19:31:21.984Z,68.59
2022-12-20T19:33:52.727Z,68.58
2022-12-20T19:36:30.558Z,68.46
2022-12-20T19:39:00.197Z,68.57
2022-12-20T19:41:29.940Z,68.63
2022-12-20T19:43:57.445Z,68.59
2022-12-20T19:46:29.069Z,68.70
2022-12-20T19:48:59.002Z,68.46
2022-12-20T19:51:28.035Z,68.47
2022-12-20T19:53:56.941Z,68.50
2022-12-20T19:56:33.856Z,68.67
2022-12-20T19:59:01.725Z,68.59
2022-12-20T20:01:29.535Z,68.25
2022-12-20T20:03:58.684Z,68.34
2022-12-20T20:06:27.134Z,68.47
2022-12-20T20:08:57.942Z,68.34
2022-12-20T20:11:25.316Z,68.75
2022-12-20T20:13:52.825Z,68.63
2022-12-20T20:16:22.650Z,67.96
2022-12-20T20:18:50.758Z,68.07
2022-12-20T20:21:22.261Z,68.02
2022-12-20T20:23:53.575Z,68.23
2022-12-20T20:26:24.277Z,68.62
2022-12-20T20:28:53.069Z,68.49
2022-12-20T20:31:21.655Z,69.13
2022-12-20T20:33:49.500Z,69.06
2022-12-20T20:36:19.842Z,68.58
2022-12-20T20:38:47.395Z,69.26
2022-12-20T20:41:15.072Z,69.32
2022-12-20T20:43:43.401Z,69.07
2022-12-20T20:46:13.668Z,69.19
2022-12-20T20:48:41.019Z,69.42
2022-12-20T20:51:07.952Z,68.85
2022-12-20T20:53:35.733Z,69.21
2022-12-20T20:56:04.683Z,69.32
2022-12-20T20:58:32.313Z,68.88
2022-12-20T21:01:01.731Z,69.21
2022-12-20T21:03:30.624Z,69.30
2022-12-20T21:08:45.097Z,69.36
2022-12-20T21:11:12.700Z,69.42
2022-12-20T21:13:39.958Z,69.97
2022-12-20T21:16:13.498Z,69.97
2022-12-20T21:18:40.576Z,70.00
2022-12-20T21:21:12.272Z,70.18
2022-12-20T21:23:43.392Z,70.10
2022-12-20T21:26:10.451Z,70.38
2022-12-20T21:28:37.412Z,69.94
2022-12-20T21:31:06.516Z,69.95
2022-12-20T21:33:33.620Z,69.90
2022-12-20T21:36:00.532Z,70.13
2022-12-20T21:38:28.014Z,69.83
2022-12-20T21:41:01.757Z,69.46
2022-12-20T21:43:29.710Z,69.65
2022-12-20T21:45:57.093Z,69.84
2022-12-20T21:48:33.924Z,69.92
2022-12-20T21:51:10.341Z,69.73
2022-12-20T21:53:46.152Z,69.50
2022-12-20T21:56:14.223Z,69.44
2022-12-20T21:58:41.199Z,69.36
2022-12-20T22:01:09.024Z,68.98
2022-12-20T22:03:37.479Z,68.58
2022-12-20T22:06:05.184Z,68.56
2022-12-20T22:08:33.334Z,68.66
2022-12-20T22:11:01.238Z,68.89
2022-12-20T22:13:33.030Z,68.68
2022-12-20T22:16:25.771Z,68.75
2022-12-20T22:18:55.363Z,68.46
2022-12-20T22:21:28.042Z,68.35
2022-12-20T22:23:56.274Z,68.32
2022-12-20T22:26:24.607Z,68.29
2022-12-20T22:28:57.614Z,68.22
2022-12-20T22:31:26.288Z,68.23
2022-12-20T22:33:54.391Z,68.42
2022-12-20T22:36:22.984Z,68.70
2022-12-20T22:38:54.814Z,68.50
2022-12-20T22:41:25.225Z,68.47
2022-12-20T22:43:53.168Z,68.34
2022-12-20T22:46:20.821Z,68.56
2022-12-20T22:48:48.065Z,68.31
2022-12-20T22:51:20.043Z,68.31
2022-12-20T22:53:48.955Z,68.71
2022-12-20T22:56:17.943Z,68.74
2022-12-20T22:58:44.935Z,68.49
2022-12-20T23:01:14.450Z,68.77
2022-12-20T23:03:41.730Z,68.59
2022-12-20T23:06:12.337Z,68.66
2022-12-20T23:08:39.704Z,68.57
2022-12-20T23:11:42.499Z,68.19
2022-12-20T23:14:38.319Z,68.00
2022-12-20T23:17:07.131Z,67.79
2022-12-20T23:19:53.821Z,67.79
2022-12-20T23:22:38.093Z,68.12
2022-12-20T23:25:16.468Z,68.12
2022-12-20T23:27:45.379Z,68.16
2022-12-20T23:30:15.957Z,67.91
2022-12-20T23:32:44.876Z,67.98
2022-12-20T23:35:13.952Z,67.74
2022-12-20T23:37:41.376Z,68.12
2022-12-20T23:40:10.243Z,67.64
2022-12-20T23:42:37.240Z,67.83
2022-12-20T23:45:04.808Z,68.05
2022-12-20T23:47:32.378Z,67.94
2022-12-20T23:49:59.327Z,67.45
2022-12-20T23:52:26.558Z,67.74
2022-12-20T23:54:53.553Z,67.75
2022-12-20T23:57:20.486Z,67.55
2022-12-20T23:59:47.424Z,67.70
